Time;durP1;ratioP1;P1;durP2;ratioP2;P2;SDS_P1;SDS_P2;PMS_P1;PMS_P2;Temp;Humidity;BMP_temperature;BMP_pressure;BME280_temperature;BME280_humidity;BME280_pressure;Samples;Min_cycle;Max_cycle;Signal;HPM_P1;HPM_P2
2022/12/15 00:41:00;;;;;;;19.90;9.25;;;;;;;;;;5080470;28;20043;-88
2022/12/15 00:43:52;;;;;;;19.95;10.13;;;;;;;;;;5084362;28;20037;-88
2022/12/15 00:46:55;;;;;;;18.25;7.45;;;;;;;;;;5064257;28;20033;-87
2022/12/15 01:21:07;;;;;;;19.35;9.10;;;;;;;;;;5083441;28;20040;-87
2022/12/15 01:23:35;;;;;;;30.70;10.90;;;;;;;;;;5043022;28;20120;-88
2022/12/15 01:26:04;;;;;;;19.00;8.00;;;;;;;;;;5079245;28;20040;-88
2022/12/15 01:28:33;;;;;;;19.20;7.97;;;;;;;;;;5076557;28;20379;-88
2022/12/15 01:31:11;;;;;;;14.50;7.60;;;;;;;;;;5078424;28;20047;-88
2022/12/15 01:33:42;;;;;;;16.80;8.07;;;;;;;;;;5076695;28;20036;-88
2022/12/15 01:36:13;;;;;;;23.20;9.40;;;;;;;;;;5057176;28;20041;-88
2022/12/15 01:40:43;;;;;;;13.88;7.28;;;;;;;;;;5079492;28;20039;-88
2022/12/15 01:42:18;;;;;;;16.20;8.55;;;;;;;;;;5063885;28;20041;-88
2022/12/15 01:44:53;;;;;;;20.80;8.52;;;;;;;;;;5031057;28;20045;-88
2022/12/15 01:47:27;;;;;;;17.48;8.00;;;;;;;;;;5062298;28;20079;-87
2022/12/15 01:49:54;;;;;;;18.30;9.70;;;;;;;;;;5063945;28;20044;-87
2022/12/15 01:52:22;;;;;;;14.50;7.88;;;;;;;;;;5045305;28;20029;-87
2022/12/15 01:54:57;;;;;;;17.60;8.93;;;;;;;;;;5077746;28;20358;-87
2022/12/15 01:57:52;;;;;;;21.70;9.15;;;;;;;;;;5081269;28;20054;-87
2022/12/15 02:00:44;;;;;;;16.15;9.32;;;;;;;;;;5079950;28;20707;-87
2022/12/15 02:03:13;;;;;;;15.57;8.25;;;;;;;;;;5065315;28;20047;-87
2022/12/15 02:05:41;;;;;;;13.27;7.90;;;;;;;;;;5077513;28;20062;-87
2022/12/15 02:08:09;;;;;;;18.05;8.43;;;;;;;;;;5064945;28;20068;-87
2022/12/15 02:10:58;;;;;;;19.17;10.20;;;;;;;;;;5062732;28;20052;-87
2022/12/15 02:13:45;;;;;;;17.73;8.55;;;;;;;;;;5082707;28;20086;-87
2022/12/15 02:16:17;;;;;;;19.30;9.85;;;;;;;;;;5076882;28;20040;-87
2022/12/15 02:19:01;;;;;;;18.40;8.38;;;;;;;;;;5081120;28;20044;-87
2022/12/15 02:21:45;;;;;;;14.73;7.78;;;;;;;;;;5062679;28;20047;-87
2022/12/15 02:24:24;;;;;;;14.07;7.13;;;;;;;;;;5081308;28;20032;-87
2022/12/15 02:27:11;;;;;;;17.08;8.73;;;;;;;;;;5047222;28;20048;-87
2022/12/15 02:30:06;;;;;;;21.10;8.48;;;;;;;;;;5073200;28;20086;-87
2022/12/15 02:33:00;;;;;;;14.95;8.07;;;;;;;;;;5078687;28;20127;-87
2022/12/15 02:35:32;;;;;;;16.48;8.05;;;;;;;;;;5080013;28;20037;-87
2022/12/15 02:38:04;;;;;;;20.85;8.60;;;;;;;;;;5080519;28;20130;-87
2022/12/15 02:40:32;;;;;;;20.40;7.75;;;;;;;;;;5061178;28;20690;-87
2022/12/15 02:43:04;;;;;;;16.58;7.88;;;;;;;;;;5066788;28;20044;-87
2022/12/15 02:45:54;;;;;;;17.25;7.45;;;;;;;;;;5084874;28;20043;-87
2022/12/15 02:48:37;;;;;;;17.80;8.63;;;;;;;;;;5081506;28;20033;-87
2022/12/15 02:51:53;;;;;;;20.88;8.52;;;;;;;;;;5085008;28;20040;-87
2022/12/15 02:54:33;;;;;;;16.48;8.32;;;;;;;;;;5060372;28;20110;-87
2022/12/15 02:57:12;;;;;;;20.70;9.02;;;;;;;;;;5039584;28;20053;-87
2022/12/15 03:00:06;;;;;;;17.98;7.18;;;;;;;;;;5057800;28;20039;-87
2022/12/15 03:02:43;;;;;;;14.93;7.45;;;;;;;;;;5064466;28;20105;-87
2022/12/15 03:05:18;;;;;;;11.80;6.63;;;;;;;;;;5082309;28;20043;-87
2022/12/15 03:07:52;;;;;;;19.58;8.90;;;;;;;;;;5076068;28;20492;-87
2022/12/15 03:10:23;;;;;;;18.25;8.45;;;;;;;;;;5082934;28;20051;-87
2022/12/15 03:12:51;;;;;;;12.05;6.97;;;;;;;;;;5065651;28;20124;-87
2022/12/15 03:15:24;;;;;;;14.55;6.78;;;;;;;;;;5066168;28;20040;-87
2022/12/15 03:17:58;;;;;;;13.80;7.57;;;;;;;;;;5049790;28;20041;-87
2022/12/15 03:20:50;;;;;;;12.45;6.88;;;;;;;;;;5067588;28;20024;-87
2022/12/15 03:23:18;;;;;;;17.63;7.28;;;;;;;;;;5083565;28;20032;-87
2022/12/15 03:25:46;;;;;;;16.67;9.48;;;;;;;;;;5081507;28;20039;-87
2022/12/15 03:28:42;;;;;;;15.27;8.40;;;;;;;;;;5069185;28;20035;-87
2022/12/15 03:31:14;;;;;;;14.88;6.75;;;;;;;;;;5079756;28;20031;-88
2022/12/15 03:33:42;;;;;;;17.25;8.07;;;;;;;;;;5065865;28;20379;-87
2022/12/15 03:36:36;;;;;;;17.05;8.23;;;;;;;;;;5069026;28;20040;-87
2022/12/15 03:39:08;;;;;;;13.95;7.68;;;;;;;;;;5069801;28;20052;-87
2022/12/15 03:41:36;;;;;;;16.90;8.13;;;;;;;;;;5086850;28;20060;-87
2022/12/15 03:44:04;;;;;;;23.13;8.55;;;;;;;;;;5081760;28;20074;-87
2022/12/15 03:46:32;;;;;;;15.77;7.88;;;;;;;;;;5083735;28;20063;-87
2022/12/15 03:49:00;;;;;;;22.20;9.27;;;;;;;;;;5081893;28;20032;-87
2022/12/15 03:51:28;;;;;;;13.27;7.85;;;;;;;;;;5082843;28;20044;-87
2022/12/15 03:53:57;;;;;;;18.27;9.05;;;;;;;;;;5066043;28;20062;-87
2022/12/15 03:56:24;;;;;;;17.27;7.43;;;;;;;;;;5063314;28;20040;-87
2022/12/15 03:58:52;;;;;;;12.93;7.05;;;;;;;;;;5061661;28;20483;-87
2022/12/15 04:01:30;;;;;;;13.85;7.28;;;;;;;;;;5080939;28;20051;-87
2022/12/15 04:04:03;;;;;;;15.18;7.78;;;;;;;;;;5078858;28;20036;-88
2022/12/15 04:06:30;;;;;;;14.88;6.82;;;;;;;;;;5079013;28;20076;-87
2022/12/15 04:08:58;;;;;;;14.40;6.90;;;;;;;;;;5078642;28;20043;-87
2022/12/15 04:11:26;;;;;;;18.60;7.00;;;;;;;;;;5082325;28;20067;-87
2022/12/15 04:13:58;;;;;;;17.02;7.65;;;;;;;;;;5066483;28;20088;-87
2022/12/15 04:16:26;;;;;;;21.58;8.73;;;;;;;;;;5066838;28;20119;-87
2022/12/15 04:21:46;;;;;;;18.80;7.85;;;;;;;;;;5080699;28;20039;-88
2022/12/15 05:32:48;;;;;;;16.23;9.20;;;;;;;;;;5078977;28;20047;-87
2022/12/15 05:35:16;;;;;;;12.82;6.43;;;;;;;;;;5065882;28;20035;-87
2022/12/15 05:37:44;;;;;;;16.63;7.43;;;;;;;;;;5067911;28;20489;-87
2022/12/15 05:40:12;;;;;;;19.02;8.23;;;;;;;;;;5077820;28;20043;-87
2022/12/15 05:42:40;;;;;;;16.15;8.20;;;;;;;;;;5047297;28;20040;-87
2022/12/15 05:45:12;;;;;;;14.32;7.32;;;;;;;;;;5076898;28;20045;-87
2022/12/15 05:47:40;;;;;;;12.98;6.28;;;;;;;;;;5077095;28;20102;-87
2022/12/15 05:50:32;;;;;;;17.50;7.55;;;;;;;;;;5064046;28;20041;-87
2022/12/15 05:53:00;;;;;;;17.65;8.00;;;;;;;;;;5080083;28;20092;-87
2022/12/15 05:55:32;;;;;;;13.38;7.20;;;;;;;;;;5036782;28;20075;-87
2022/12/15 05:58:00;;;;;;;15.90;7.85;;;;;;;;;;5082542;28;20155;-87
2022/12/15 06:00:28;;;;;;;13.68;7.07;;;;;;;;;;5061945;28;20508;-87
2022/12/15 06:02:57;;;;;;;15.63;8.02;;;;;;;;;;5061366;28;20028;-87
2022/12/15 06:05:24;;;;;;;17.80;8.70;;;;;;;;;;5062790;28;20090;-87
2022/12/15 06:08:18;;;;;;;17.70;9.15;;;;;;;;;;5079440;28;20040;-87
2022/12/15 06:10:53;;;;;;;17.67;7.35;;;;;;;;;;5059368;28;20044;-87
2022/12/15 06:13:21;;;;;;;16.27;8.13;;;;;;;;;;5081271;28;20467;-87
2022/12/15 06:16:17;;;;;;;16.08;8.43;;;;;;;;;;5079134;28;20133;-87
2022/12/15 06:18:47;;;;;;;18.35;7.95;;;;;;;;;;5062790;28;20040;-87
2022/12/15 06:21:19;;;;;;;17.98;7.15;;;;;;;;;;5061192;28;20066;-87
2022/12/15 06:23:46;;;;;;;20.05;9.40;;;;;;;;;;5070993;28;20082;-86
2022/12/15 06:26:21;;;;;;;16.50;7.85;;;;;;;;;;5080427;28;20047;-87
2022/12/15 06:28:54;;;;;;;12.30;7.88;;;;;;;;;;5079917;28;20047;-87
2022/12/15 06:31:27;;;;;;;17.15;8.98;;;;;;;;;;5077483;28;20035;-88
2022/12/15 06:33:57;;;;;;;24.98;10.93;;;;;;;;;;5080406;28;20032;-88
2022/12/15 06:36:55;;;;;;;20.58;10.88;;;;;;;;;;5079932;28;20040;-87
2022/12/15 06:39:24;;;;;;;17.10;7.95;;;;;;;;;;5063461;28;20042;-87
2022/12/15 06:41:52;;;;;;;16.90;7.53;;;;;;;;;;5061106;28;20040;-87
2022/12/15 06:44:44;;;;;;;24.38;8.98;;;;;;;;;;5064488;28;20028;-87
2022/12/15 06:47:16;;;;;;;20.63;8.93;;;;;;;;;;5068065;28;20075;-87
2022/12/15 06:50:08;;;;;;;15.73;8.55;;;;;;;;;;5054902;28;20028;-89
2022/12/15 06:52:36;;;;;;;22.38;8.73;;;;;;;;;;5070714;28;20036;-87
2022/12/15 06:55:05;;;;;;;15.80;7.70;;;;;;;;;;5081896;28;20733;-88
2022/12/15 06:57:58;;;;;;;15.13;8.55;;;;;;;;;;5080183;28;20032;-87
2022/12/15 07:00:26;;;;;;;20.55;9.13;;;;;;;;;;5064763;28;20044;-88
2022/12/15 07:02:54;;;;;;;15.77;8.02;;;;;;;;;;5080209;28;20040;-88
2022/12/15 07:05:22;;;;;;;15.95;7.40;;;;;;;;;;5081748;28;20450;-87
2022/12/15 07:07:51;;;;;;;13.35;8.05;;;;;;;;;;5050237;28;20063;-87
2022/12/15 07:10:24;;;;;;;17.20;7.82;;;;;;;;;;5062502;28;20029;-87
2022/12/15 07:12:55;;;;;;;12.95;8.25;;;;;;;;;;5065131;28;20051;-87
2022/12/15 07:15:23;;;;;;;18.20;9.55;;;;;;;;;;5080708;28;20037;-87
2022/12/15 07:17:56;;;;;;;19.60;9.88;;;;;;;;;;5062805;28;20036;-87
2022/12/15 07:20:24;;;;;;;15.50;8.75;;;;;;;;;;5079184;28;20060;-88
2022/12/15 07:22:56;;;;;;;15.43;6.55;;;;;;;;;;5078095;28;20040;-87
2022/12/15 07:25:24;;;;;;;14.65;8.57;;;;;;;;;;5083341;28;20036;-87
2022/12/15 07:27:52;;;;;;;10.85;5.88;;;;;;;;;;5081287;28;20047;-87
2022/12/15 07:30:20;;;;;;;17.33;7.45;;;;;;;;;;5060213;28;20131;-88
2022/12/15 07:33:14;;;;;;;12.60;6.53;;;;;;;;;;5081995;28;20032;-87
2022/12/15 07:35:59;;;;;;;15.55;8.75;;;;;;;;;;5079889;28;20032;-87
2022/12/15 07:38:29;;;;;;;16.13;8.02;;;;;;;;;;5077583;28;20043;-87
2022/12/15 07:41:01;;;;;;;14.75;7.10;;;;;;;;;;5040456;28;20052;-86
2022/12/15 07:43:55;;;;;;;12.65;6.85;;;;;;;;;;5084575;28;20028;-87
2022/12/15 07:46:28;;;;;;;15.00;7.32;;;;;;;;;;5070569;28;20109;-87
2022/12/15 07:48:56;;;;;;;18.13;8.02;;;;;;;;;;5084134;28;20425;-87
2022/12/15 07:51:28;;;;;;;14.10;7.88;;;;;;;;;;5070172;28;20048;-87
2022/12/15 07:53:56;;;;;;;16.25;7.30;;;;;;;;;;5084453;28;20044;-87
2022/12/15 07:56:28;;;;;;;16.85;7.30;;;;;;;;;;5074777;28;20521;-87
2022/12/15 07:59:26;;;;;;;16.27;7.53;;;;;;;;;;5080824;28;20036;-88
2022/12/15 08:01:54;;;;;;;17.75;7.38;;;;;;;;;;5075070;28;20093;-87
2022/12/15 08:04:22;;;;;;;14.75;8.63;;;;;;;;;;5070705;28;20556;-87
2022/12/15 08:06:52;;;;;;;16.83;8.90;;;;;;;;;;5040452;28;20045;-87
2022/12/15 08:09:46;;;;;;;12.10;7.45;;;;;;;;;;5085713;28;20055;-88
2022/12/15 08:12:15;;;;;;;21.67;8.85;;;;;;;;;;5071548;28;20036;-87
2022/12/15 08:14:43;;;;;;;15.02;8.48;;;;;;;;;;5071179;28;20040;-87
2022/12/15 08:17:16;;;;;;;14.32;8.27;;;;;;;;;;5083846;28;20040;-87
2022/12/15 08:19:44;;;;;;;18.63;9.15;;;;;;;;;;5068784;28;20070;-87
2022/12/15 08:22:13;;;;;;;12.55;8.32;;;;;;;;;;5063199;28;20036;-87
2022/12/15 08:24:42;;;;;;;23.13;9.98;;;;;;;;;;5059688;28;20084;-88
2022/12/15 08:27:10;;;;;;;19.23;9.27;;;;;;;;;;5082883;28;20137;-87
2022/12/15 08:29:38;;;;;;;16.73;9.13;;;;;;;;;;5068451;28;20067;-87
2022/12/15 08:32:46;;;;;;;14.45;8.30;;;;;;;;;;5084931;28;20045;-88
2022/12/15 08:35:18;;;;;;;15.43;8.07;;;;;;;;;;5067439;28;20097;-87
2022/12/15 08:38:31;;;;;;;16.10;8.35;;;;;;;;;;5073384;28;20069;-88
2022/12/15 08:41:08;;;;;;;14.95;8.20;;;;;;;;;;5064415;28;20040;-88
2022/12/15 08:43:37;;;;;;;20.00;8.98;;;;;;;;;;5078516;28;20793;-88
2022/12/15 08:46:32;;;;;;;15.57;7.82;;;;;;;;;;5082771;28;20033;-88
2022/12/15 08:49:24;;;;;;;20.45;10.15;;;;;;;;;;5063072;28;20043;-87
2022/12/15 08:51:57;;;;;;;22.48;8.93;;;;;;;;;;5062991;28;20132;-88
2022/12/15 08:54:24;;;;;;;18.88;10.18;;;;;;;;;;5083109;28;20032;-88
2022/12/15 08:56:52;;;;;;;21.15;9.52;;;;;;;;;;5065937;28;20063;-88
2022/12/15 08:59:21;;;;;;;18.08;9.20;;;;;;;;;;5079420;28;20078;-88
2022/12/15 09:01:48;;;;;;;28.83;9.90;;;;;;;;;;5076454;28;20033;-87
2022/12/15 09:04:20;;;;;;;22.90;11.50;;;;;;;;;;5068175;28;20032;-88
2022/12/15 09:06:48;;;;;;;36.60;12.27;;;;;;;;;;5080152;28;20044;-88
2022/12/15 09:09:21;;;;;;;24.10;11.88;;;;;;;;;;5081778;28;20135;-88
2022/12/15 09:11:48;;;;;;;18.38;9.30;;;;;;;;;;5065192;28;20049;-88
2022/12/15 09:14:17;;;;;;;20.52;11.10;;;;;;;;;;5059874;28;20036;-88
2022/12/15 09:16:52;;;;;;;22.52;9.80;;;;;;;;;;5063727;28;20500;-88
2022/12/15 09:19:20;;;;;;;22.38;9.27;;;;;;;;;;5078745;28;20344;-88
2022/12/15 09:21:52;;;;;;;22.83;10.20;;;;;;;;;;5077364;28;20040;-88
2022/12/15 09:24:45;;;;;;;23.85;9.20;;;;;;;;;;5081409;28;20035;-88
2022/12/15 09:27:12;;;;;;;20.70;9.80;;;;;;;;;;5081822;28;20108;-88
2022/12/15 09:29:40;;;;;;;30.55;10.68;;;;;;;;;;5078627;28;20040;-88
2022/12/15 09:32:08;;;;;;;21.17;9.15;;;;;;;;;;5062050;28;20471;-88
2022/12/15 09:34:40;;;;;;;21.83;10.00;;;;;;;;;;5067775;28;20044;-87
2022/12/15 09:37:17;;;;;;;18.63;10.18;;;;;;;;;;5079964;28;20576;-87
2022/12/15 09:39:44;;;;;;;22.55;10.98;;;;;;;;;;5080662;28;20094;-87
2022/12/15 09:42:23;;;;;;;22.23;9.40;;;;;;;;;;5079129;28;20139;-89
2022/12/15 09:45:03;;;;;;;20.83;9.75;;;;;;;;;;5073077;28;20056;-87
2022/12/15 09:47:41;;;;;;;23.20;11.07;;;;;;;;;;5075866;28;20473;-88
2022/12/15 09:50:41;;;;;;;28.55;11.43;;;;;;;;;;5076667;28;20225;-88
2022/12/15 09:53:32;;;;;;;18.25;8.93;;;;;;;;;;5073096;28;20389;-87
2022/12/15 09:56:27;;;;;;;20.65;8.93;;;;;;;;;;5054070;28;20036;-88
2022/12/15 09:59:04;;;;;;;26.08;11.75;;;;;;;;;;5078774;28;20055;-88
2022/12/15 10:01:51;;;;;;;21.85;10.77;;;;;;;;;;5080392;28;20040;-88
2022/12/15 10:04:45;;;;;;;20.23;9.85;;;;;;;;;;5056941;28;20033;-88
2022/12/15 10:07:31;;;;;;;23.30;10.85;;;;;;;;;;5078142;28;20098;-88
2022/12/15 10:09:58;;;;;;;24.60;11.02;;;;;;;;;;5079138;28;20040;-88
2022/12/15 10:12:34;;;;;;;28.13;11.20;;;;;;;;;;5060255;28;20059;-88
2022/12/15 10:15:17;;;;;;;23.00;10.93;;;;;;;;;;5065383;28;20043;-87
2022/12/15 10:18:02;;;;;;;21.70;10.85;;;;;;;;;;5031060;28;20072;-87
2022/12/15 10:20:31;;;;;;;26.08;9.77;;;;;;;;;;5058312;28;20052;-88
2022/12/15 10:23:08;;;;;;;19.80;10.15;;;;;;;;;;5076418;28;20999;-88
2022/12/15 10:25:36;;;;;;;18.73;9.75;;;;;;;;;;5060853;28;20514;-88
2022/12/15 10:28:37;;;;;;;16.95;9.93;;;;;;;;;;5045257;28;20036;-89
2022/12/15 10:31:36;;;;;;;18.08;9.55;;;;;;;;;;5079868;28;20047;-88
2022/12/15 10:34:15;;;;;;;22.67;9.98;;;;;;;;;;5076829;28;20032;-88
2022/12/15 10:36:49;;;;;;;22.20;9.68;;;;;;;;;;5070540;28;20036;-88
2022/12/15 10:39:16;;;;;;;20.50;11.18;;;;;;;;;;5080157;28;20097;-88
2022/12/15 10:41:44;;;;;;;22.70;10.02;;;;;;;;;;5062034;28;20516;-88
2022/12/15 10:44:25;;;;;;;22.90;9.07;;;;;;;;;;5060827;28;20028;-88
2022/12/15 10:47:08;;;;;;;26.83;11.10;;;;;;;;;;5063272;28;20048;-88
2022/12/15 10:49:36;;;;;;;22.80;10.18;;;;;;;;;;5065222;28;20070;-88
2022/12/15 10:52:13;;;;;;;22.80;10.88;;;;;;;;;;5080785;28;20064;-89
2022/12/15 10:54:44;;;;;;;29.05;12.15;;;;;;;;;;5079619;28;20481;-88
2022/12/15 10:57:22;;;;;;;24.08;10.52;;;;;;;;;;5082034;28;20135;-88
2022/12/15 11:00:21;;;;;;;22.73;11.13;;;;;;;;;;5052669;28;20048;-88
2022/12/15 11:02:54;;;;;;;24.20;11.15;;;;;;;;;;5082887;28;20040;-87
2022/12/15 11:05:23;;;;;;;21.80;10.07;;;;;;;;;;5082517;28;20091;-88
2022/12/15 11:07:53;;;;;;;20.40;10.52;;;;;;;;;;5084423;28;20120;-88
2022/12/15 11:10:20;;;;;;;18.08;10.45;;;;;;;;;;5086445;28;20036;-88
2022/12/15 11:13:11;;;;;;;25.50;11.45;;;;;;;;;;5071002;28;20587;-88
2022/12/15 11:15:40;;;;;;;29.30;11.98;;;;;;;;;;5089038;28;20069;-88
2022/12/15 11:18:15;;;;;;;21.80;11.88;;;;;;;;;;5086291;28;20032;-88
2022/12/15 11:20:58;;;;;;;29.42;12.73;;;;;;;;;;5072423;28;20041;-88
2022/12/15 11:23:36;;;;;;;19.13;10.43;;;;;;;;;;5082941;28;20090;-89
2022/12/15 11:26:35;;;;;;;21.60;12.10;;;;;;;;;;5086629;28;20036;-88
2022/12/15 11:29:28;;;;;;;24.83;11.88;;;;;;;;;;5084339;28;20517;-88
2022/12/15 11:31:56;;;;;;;24.77;10.95;;;;;;;;;;5077172;28;20078;-88
2022/12/15 11:34:41;;;;;;;30.85;12.75;;;;;;;;;;5066798;28;20140;-88
2022/12/15 11:37:41;;;;;;;24.10;11.00;;;;;;;;;;5066576;28;20619;-88
2022/12/15 11:40:35;;;;;;;25.58;11.23;;;;;;;;;;5067169;28;20043;-88
2022/12/15 11:43:19;;;;;;;25.50;9.93;;;;;;;;;;5053180;28;20037;-88
2022/12/15 11:46:04;;;;;;;28.13;10.75;;;;;;;;;;5074726;28;20392;-88
2022/12/15 11:48:57;;;;;;;24.88;11.25;;;;;;;;;;5083139;28;20188;-88
2022/12/15 11:51:39;;;;;;;27.65;10.10;;;;;;;;;;5082354;28;20033;-88
2022/12/15 11:54:19;;;;;;;21.98;10.88;;;;;;;;;;5079842;28;20032;-88
2022/12/15 11:56:52;;;;;;;20.08;11.02;;;;;;;;;;5083617;28;20090;-88
2022/12/15 11:59:26;;;;;;;23.67;10.15;;;;;;;;;;5071877;28;20048;-88
2022/12/15 12:02:29;;;;;;;20.85;9.63;;;;;;;;;;5090156;28;20032;-89
2022/12/15 12:05:34;;;;;;;19.50;9.43;;;;;;;;;;5088560;28;20174;-88
2022/12/15 12:08:17;;;;;;;31.05;10.75;;;;;;;;;;5081876;28;20068;-88
2022/12/15 12:11:11;;;;;;;24.33;11.10;;;;;;;;;;5082916;28;20040;-88
2022/12/15 12:14:06;;;;;;;16.90;9.75;;;;;;;;;;5061176;28;20083;-88
2022/12/15 12:17:07;;;;;;;23.38;9.50;;;;;;;;;;5041020;28;20282;-88
2022/12/15 12:19:44;;;;;;;22.50;10.35;;;;;;;;;;5079348;28;20051;-88
2022/12/15 12:22:24;;;;;;;25.35;11.60;;;;;;;;;;5087042;28;20042;-88
2022/12/15 12:25:14;;;;;;;23.65;11.55;;;;;;;;;;5083152;28;20631;-89
2022/12/15 12:28:19;;;;;;;23.80;10.57;;;;;;;;;;5071355;28;20110;-88
2022/12/15 12:30:54;;;;;;;30.10;12.70;;;;;;;;;;5037346;28;20056;-88
2022/12/15 12:33:43;;;;;;;28.27;12.60;;;;;;;;;;5084245;28;20123;-88
2022/12/15 12:36:14;;;;;;;21.35;9.60;;;;;;;;;;5082456;28;20032;-88
2022/12/15 12:38:49;;;;;;;20.30;10.52;;;;;;;;;;5050432;28;20119;-88
2022/12/15 12:41:42;;;;;;;24.73;11.88;;;;;;;;;;5065937;28;20028;-89
2022/12/15 12:47:23;;;;;;;31.25;11.55;;;;;;;;;;5073536;28;20086;-89
2022/12/15 12:50:42;;;;;;;24.42;11.30;;;;;;;;;;5081347;28;20036;-89
2022/12/15 12:53:30;;;;;;;26.77;10.85;;;;;;;;;;5071647;28;20039;-89
2022/12/15 12:56:02;;;;;;;30.15;10.77;;;;;;;;;;5068315;28;20085;-88
2022/12/15 12:58:40;;;;;;;22.27;10.55;;;;;;;;;;5081749;28;20033;-88
2022/12/15 13:01:31;;;;;;;22.08;10.45;;;;;;;;;;5050117;28;20044;-88
2022/12/15 13:04:07;;;;;;;29.67;10.93;;;;;;;;;;5070633;28;20032;-89
2022/12/15 13:06:40;;;;;;;26.65;10.80;;;;;;;;;;5084479;28;20031;-89
2022/12/15 13:09:15;;;;;;;23.80;11.57;;;;;;;;;;5042996;28;20045;-89
2022/12/15 13:11:49;;;;;;;27.05;11.75;;;;;;;;;;5062073;28;20067;-89
2022/12/15 13:14:40;;;;;;;26.83;12.15;;;;;;;;;;5074562;28;20036;-87
2022/12/15 13:17:31;;;;;;;26.90;10.63;;;;;;;;;;5083509;28;20051;-87
2022/12/15 13:20:25;;;;;;;24.70;12.20;;;;;;;;;;5057517;28;20602;-87
2022/12/15 13:22:53;;;;;;;23.40;11.82;;;;;;;;;;5081447;28;20600;-87
2022/12/15 13:25:37;;;;;;;24.95;9.93;;;;;;;;;;5044334;28;20060;-89
2022/12/15 13:28:41;;;;;;;20.08;9.55;;;;;;;;;;5075640;28;20097;-89
2022/12/15 13:31:17;;;;;;;24.35;9.98;;;;;;;;;;5083062;28;20029;-89
2022/12/15 13:33:49;;;;;;;20.33;10.18;;;;;;;;;;5078917;28;20036;-89
2022/12/15 13:36:35;;;;;;;26.50;9.85;;;;;;;;;;5073416;28;20047;-89
2022/12/15 13:39:11;;;;;;;19.77;9.70;;;;;;;;;;5063786;28;20578;-88
2022/12/15 13:41:47;;;;;;;20.27;9.45;;;;;;;;;;5062759;28;20529;-88
2022/12/15 13:45:16;;;;;;;24.95;9.57;;;;;;;;;;5061878;28;20094;-89
2022/12/15 13:47:52;;;;;;;19.65;9.35;;;;;;;;;;5077071;28;20068;-89
2022/12/15 13:51:02;;;;;;;17.13;9.20;;;;;;;;;;5076424;28;20040;-89
2022/12/15 13:53:38;;;;;;;23.60;9.73;;;;;;;;;;5060422;28;20586;-89
2022/12/15 13:56:09;;;;;;;16.65;8.45;;;;;;;;;;5074203;28;20032;-89
2022/12/15 13:58:42;;;;;;;19.08;8.48;;;;;;;;;;5077062;28;20036;-88
2022/12/15 14:01:27;;;;;;;16.85;7.78;;;;;;;;;;5075593;28;20450;-88
2022/12/15 14:04:14;;;;;;;16.10;6.35;;;;;;;;;;5075363;28;20054;-89
2022/12/15 14:06:53;;;;;;;14.73;6.47;;;;;;;;;;5079944;28;20036;-89
2022/12/15 14:09:30;;;;;;;13.68;6.45;;;;;;;;;;5073483;28;20044;-88
2022/12/15 14:12:01;;;;;;;19.45;6.50;;;;;;;;;;5062120;28;20102;-89
2022/12/15 14:14:52;;;;;;;15.52;6.68;;;;;;;;;;5073739;28;20052;-88
2022/12/15 14:17:24;;;;;;;15.07;6.25;;;;;;;;;;5045681;28;20044;-88
2022/12/15 14:19:52;;;;;;;13.70;6.38;;;;;;;;;;5076754;28;20514;-89
2022/12/15 14:22:26;;;;;;;18.02;7.32;;;;;;;;;;5033647;28;20045;-89
2022/12/15 14:25:20;;;;;;;13.32;6.30;;;;;;;;;;5073216;28;20037;-88
2022/12/15 14:27:49;;;;;;;12.40;6.35;;;;;;;;;;5079033;28;20051;-88
2022/12/15 14:30:32;;;;;;;11.55;6.25;;;;;;;;;;5072855;28;20093;-88
2022/12/15 14:33:05;;;;;;;14.85;6.38;;;;;;;;;;5061243;28;20055;-89
2022/12/15 14:35:39;;;;;;;14.07;7.10;;;;;;;;;;5060059;28;20043;-89
2022/12/15 14:38:11;;;;;;;14.60;7.28;;;;;;;;;;5060141;28;20044;-88
2022/12/15 14:40:40;;;;;;;14.25;6.57;;;;;;;;;;5080659;28;20063;-89
2022/12/15 14:43:25;;;;;;;12.80;5.55;;;;;;;;;;5063555;28;20075;-89
2022/12/15 14:46:03;;;;;;;15.35;6.68;;;;;;;;;;5064795;28;20098;-88
2022/12/15 14:48:35;;;;;;;13.57;6.28;;;;;;;;;;5064619;28;20417;-89
2022/12/15 14:51:48;;;;;;;14.30;7.18;;;;;;;;;;5079835;28;20501;-88
2022/12/15 14:54:26;;;;;;;16.42;6.90;;;;;;;;;;5066384;28;20094;-88
2022/12/15 14:56:59;;;;;;;17.10;6.82;;;;;;;;;;5043020;28;20056;-89
2022/12/15 14:59:32;;;;;;;15.77;7.15;;;;;;;;;;5061387;28;20115;-89
2022/12/15 15:02:11;;;;;;;16.60;6.00;;;;;;;;;;5055791;28;20062;-89
2022/12/15 15:04:38;;;;;;;24.80;6.72;;;;;;;;;;5079041;28;20411;-89
2022/12/15 15:07:15;;;;;;;13.10;6.68;;;;;;;;;;5080337;28;20040;-88
2022/12/15 15:09:44;;;;;;;22.67;7.20;;;;;;;;;;5057136;28;20047;-89
2022/12/15 15:12:25;;;;;;;17.65;7.85;;;;;;;;;;5073711;28;20040;-89
2022/12/15 15:15:05;;;;;;;15.23;7.07;;;;;;;;;;5059052;28;20487;-88
2022/12/15 15:17:32;;;;;;;14.30;6.55;;;;;;;;;;5056191;28;20068;-89
2022/12/15 15:20:14;;;;;;;23.60;9.90;;;;;;;;;;5046908;28;20077;-88
2022/12/15 15:22:45;;;;;;;29.17;10.90;;;;;;;;;;5073267;28;20029;-89
2022/12/15 15:25:28;;;;;;;28.05;10.85;;;;;;;;;;5077469;28;20032;-90
2022/12/15 15:28:17;;;;;;;16.70;7.70;;;;;;;;;;5057612;28;21709;-89
2022/12/15 15:31:29;;;;;;;16.67;7.70;;;;;;;;;;5066326;28;20040;-87
2022/12/15 15:34:29;;;;;;;16.50;7.05;;;;;;;;;;5040122;28;20052;-90
2022/12/15 15:36:56;;;;;;;14.90;7.00;;;;;;;;;;5076387;28;20051;-89
2022/12/15 15:39:53;;;;;;;19.13;6.57;;;;;;;;;;5074604;28;20040;-89
2022/12/15 15:42:21;;;;;;;11.02;6.32;;;;;;;;;;5056959;28;20044;-89
2022/12/15 15:44:56;;;;;;;17.33;6.65;;;;;;;;;;5075495;28;20527;-89
2022/12/15 15:47:29;;;;;;;15.18;6.95;;;;;;;;;;5060264;28;20044;-90
2022/12/15 15:49:58;;;;;;;14.43;6.05;;;;;;;;;;5078956;28;20032;-89
2022/12/15 15:52:28;;;;;;;12.65;6.20;;;;;;;;;;5045667;28;20093;-90
2022/12/15 15:55:27;;;;;;;14.35;6.22;;;;;;;;;;5072223;28;20119;-90
2022/12/15 15:57:55;;;;;;;13.38;6.72;;;;;;;;;;5075182;28;20044;-89
2022/12/15 16:00:24;;;;;;;17.17;6.68;;;;;;;;;;5076049;28;20035;-89
2022/12/15 16:02:53;;;;;;;14.43;7.38;;;;;;;;;;5061793;28;20064;-89
2022/12/15 16:05:20;;;;;;;11.70;6.03;;;;;;;;;;5059912;28;20501;-89
2022/12/15 16:07:49;;;;;;;16.30;6.30;;;;;;;;;;5075236;28;20040;-89
2022/12/15 16:10:19;;;;;;;12.50;6.72;;;;;;;;;;5076629;28;20047;-89
2022/12/15 16:12:49;;;;;;;13.73;6.38;;;;;;;;;;5057268;28;20048;-89
2022/12/15 16:15:20;;;;;;;21.67;6.88;;;;;;;;;;5069214;28;20056;-89
2022/12/15 16:17:49;;;;;;;13.20;6.82;;;;;;;;;;5061060;28;20055;-89
2022/12/15 16:20:18;;;;;;;14.65;7.00;;;;;;;;;;5055420;28;20048;-90
2022/12/15 16:22:51;;;;;;;14.60;6.68;;;;;;;;;;5060822;28;20036;-90
2022/12/15 16:25:35;;;;;;;15.05;7.45;;;;;;;;;;5057287;28;20127;-90
2022/12/15 16:28:24;;;;;;;17.02;7.60;;;;;;;;;;5061139;28;20035;-90
2022/12/15 16:30:53;;;;;;;22.48;7.63;;;;;;;;;;5070368;28;20041;-91
2022/12/15 16:33:20;;;;;;;25.45;7.72;;;;;;;;;;5073602;28;20047;-91
2022/12/15 16:36:13;;;;;;;16.83;7.95;;;;;;;;;;5039118;28;20062;-90
2022/12/15 16:38:41;;;;;;;18.65;8.30;;;;;;;;;;5077237;28;20514;-90
2022/12/15 16:41:13;;;;;;;19.73;7.30;;;;;;;;;;5054781;28;20128;-91
2022/12/15 16:43:40;;;;;;;17.05;8.32;;;;;;;;;;5060232;28;20062;-91
2022/12/15 16:46:14;;;;;;;20.15;9.57;;;;;;;;;;5053470;28;20048;-91
2022/12/15 16:48:46;;;;;;;15.73;9.07;;;;;;;;;;5042383;28;20056;-91
2022/12/15 16:51:29;;;;;;;20.77;8.98;;;;;;;;;;5042280;28;20500;-91
2022/12/15 16:54:02;;;;;;;21.83;10.52;;;;;;;;;;5058781;28;20157;-90
2022/12/15 16:56:30;;;;;;;27.55;10.43;;;;;;;;;;5062396;28;20541;-91
2022/12/15 17:02:24;;;;;;;25.02;10.80;;;;;;;;;;5056817;28;20142;-91
2022/12/15 17:04:56;;;;;;;24.15;11.18;;;;;;;;;;5078205;28;20129;-90
2022/12/15 17:07:26;;;;;;;23.02;8.98;;;;;;;;;;5057212;28;20040;-90
2022/12/15 17:09:55;;;;;;;18.98;8.60;;;;;;;;;;5061843;28;20173;-91
2022/12/15 17:12:22;;;;;;;20.45;10.18;;;;;;;;;;5044710;28;20041;-90
2022/12/15 17:14:56;;;;;;;16.25;8.73;;;;;;;;;;5079902;28;20387;-91
2022/12/15 17:17:25;;;;;;;18.08;9.65;;;;;;;;;;5072440;28;20136;-90
2022/12/15 17:19:54;;;;;;;16.65;7.50;;;;;;;;;;5061414;28;20063;-91
2022/12/15 17:22:51;;;;;;;17.23;8.32;;;;;;;;;;5060863;28;20036;-91
2022/12/15 17:25:45;;;;;;;22.52;8.80;;;;;;;;;;5059027;28;20029;-90
2022/12/15 17:28:36;;;;;;;18.83;8.68;;;;;;;;;;5081475;28;20032;-89
2022/12/15 17:31:17;;;;;;;27.77;8.35;;;;;;;;;;5079264;28;20048;-90
2022/12/15 17:33:44;;;;;;;17.42;8.82;;;;;;;;;;5077262;28;20416;-90
2022/12/15 17:36:22;;;;;;;19.92;9.25;;;;;;;;;;5058989;28;20036;-90
2022/12/15 17:38:54;;;;;;;21.83;9.98;;;;;;;;;;5057554;28;20040;-90
2022/12/15 17:41:27;;;;;;;23.30;9.88;;;;;;;;;;5056480;28;20106;-90
2022/12/15 17:44:21;;;;;;;19.33;9.25;;;;;;;;;;5057141;28;20046;-91
2022/12/15 17:47:06;;;;;;;21.38;9.73;;;;;;;;;;5058690;28;20044;-90
2022/12/15 17:49:35;;;;;;;19.98;9.48;;;;;;;;;;5044101;28;20117;-90
2022/12/15 17:52:28;;;;;;;18.15;8.73;;;;;;;;;;5030778;28;20067;-90
2022/12/15 17:55:02;;;;;;;17.30;9.43;;;;;;;;;;5073898;28;20486;-90
2022/12/15 17:57:30;;;;;;;26.88;8.85;;;;;;;;;;5073936;28;20032;-90